createdAt,value
2023-02-11T00:00:16.132Z,64.96
2023-02-11T00:01:28.889Z,65.38
2023-02-11T00:02:32.030Z,65.83
2023-02-11T00:03:33.864Z,65.21
2023-02-11T00:04:35.640Z,65.68
2023-02-11T00:05:37.501Z,65.17
2023-02-11T00:06:39.347Z,65.41
2023-02-11T00:07:40.976Z,65.34
2023-02-11T00:08:42.995Z,65.96
2023-02-11T00:09:44.730Z,65.69
2023-02-11T00:10:46.370Z,65.61
2023-02-11T00:11:48.091Z,65.38
2023-02-11T00:12:49.806Z,65.41
2023-02-11T00:13:51.877Z,65.15
2023-02-11T00:14:53.614Z,64.60
2023-02-11T00:15:55.573Z,64.52
2023-02-11T00:16:57.360Z,64.24
2023-02-11T00:17:59.022Z,64.13
2023-02-11T00:19:01.951Z,64.32
2023-02-11T00:20:05.991Z,64.28
2023-02-11T00:21:15.036Z,64.10
2023-02-11T00:22:16.829Z,64.18
2023-02-11T00:23:19.192Z,64.57
2023-02-11T00:24:20.936Z,64.26
2023-02-11T00:25:22.668Z,64.14
2023-02-11T00:26:27.959Z,63.81
2023-02-11T00:27:29.665Z,64.86
2023-02-11T00:28:31.426Z,64.71
2023-02-11T00:29:33.201Z,64.83
2023-02-11T00:30:35.146Z,65.13
2023-02-11T00:31:37.071Z,65.46
2023-02-11T00:32:38.862Z,65.79
2023-02-11T00:33:40.641Z,65.49
2023-02-11T00:34:42.419Z,65.43
2023-02-11T00:35:44.137Z,65.75
2023-02-11T00:36:45.772Z,65.88
2023-02-11T00:37:47.450Z,65.73
2023-02-11T00:38:51.089Z,66.23
2023-02-11T00:39:52.887Z,66.39
2023-02-11T00:40:54.762Z,66.63
2023-02-11T00:41:57.212Z,66.35
2023-02-11T00:42:58.920Z,66.15
2023-02-11T00:44:01.751Z,65.57
2023-02-11T00:45:04.093Z,65.50
2023-02-11T00:46:06.930Z,65.20
2023-02-11T00:47:08.711Z,65.14
2023-02-11T00:48:10.403Z,65.01
2023-02-11T00:49:12.170Z,65.22
2023-02-11T00:50:14.023Z,65.46
2023-02-11T00:51:15.792Z,65.10
2023-02-11T00:52:17.511Z,65.12
2023-02-11T00:53:19.270Z,65.42
2023-02-11T00:54:20.953Z,65.58
2023-02-11T00:55:22.709Z,65.61
2023-02-11T00:56:24.689Z,65.67
2023-02-11T00:57:26.394Z,65.67
2023-02-11T00:58:28.466Z,65.69
2023-02-11T00:59:30.239Z,66.44
2023-02-11T01:00:32.024Z,66.25
2023-02-11T01:01:33.884Z,65.74
2023-02-11T01:02:35.604Z,65.70
2023-02-11T01:03:37.228Z,65.76
2023-02-11T01:04:38.961Z,65.40
2023-02-11T01:05:40.807Z,65.05
2023-02-11T01:06:42.543Z,65.05
2023-02-11T01:07:44.648Z,65.17
2023-02-11T01:08:46.372Z,64.97
2023-02-11T01:09:48.054Z,65.07
2023-02-11T01:11:06.550Z,65.38
2023-02-11T01:12:08.181Z,65.59
2023-02-11T01:13:10.340Z,65.71
2023-02-11T01:14:12.105Z,65.66
2023-02-11T01:15:17.988Z,65.42
2023-02-11T01:16:20.646Z,65.47
2023-02-11T01:17:22.374Z,65.63
2023-02-11T01:18:24.542Z,65.38
2023-02-11T01:19:26.263Z,65.78
2023-02-11T01:20:29.320Z,66.01
2023-02-11T01:21:31.063Z,66.00
2023-02-11T01:22:32.994Z,65.85
2023-02-11T01:23:34.699Z,65.65
2023-02-11T01:24:36.432Z,65.65
2023-02-11T01:25:38.158Z,65.53
2023-02-11T01:26:39.942Z,65.25
2023-02-11T01:27:41.744Z,65.93
2023-02-11T01:28:43.627Z,65.48
2023-02-11T01:29:45.263Z,65.23
2023-02-11T01:30:47.041Z,65.54
2023-02-11T01:31:48.901Z,65.24
2023-02-11T01:32:50.758Z,65.68
2023-02-11T01:33:53.185Z,65.49
2023-02-11T01:34:55.122Z,65.60
2023-02-11T01:36:01.478Z,65.47
2023-02-11T01:37:03.156Z,65.99
2023-02-11T01:38:04.875Z,66.61
2023-02-11T01:39:06.804Z,67.12
2023-02-11T01:40:14.889Z,66.77
2023-02-11T01:41:16.631Z,66.30
2023-02-11T01:42:21.252Z,66.24
2023-02-11T01:43:24.617Z,65.90
2023-02-11T01:44:31.786Z,66.10
2023-02-11T01:45:45.660Z,66.15
2023-02-11T01:46:47.376Z,66.13
2023-02-11T01:47:49.137Z,66.31
2023-02-11T01:48:55.283Z,65.78
2023-02-11T01:50:02.138Z,65.84
2023-02-11T01:51:18.520Z,65.66
2023-02-11T01:52:23.448Z,66.45
2023-02-11T01:53:25.955Z,66.05
2023-02-11T01:54:32.932Z,66.10
2023-02-11T01:55:34.644Z,66.93
2023-02-11T01:56:42.385Z,67.30
2023-02-11T01:57:47.559Z,66.22
2023-02-11T01:58:51.741Z,65.85
2023-02-11T02:00:14.374Z,65.83
2023-02-11T02:01:23.123Z,66.27
2023-02-11T02:03:03.250Z,66.09
2023-02-11T02:04:06.926Z,65.94
2023-02-11T02:05:17.776Z,65.87
2023-02-11T02:06:34.537Z,65.89
2023-02-11T02:08:10.892Z,65.91
2023-02-11T02:09:37.884Z,65.70
2023-02-11T02:10:43.699Z,65.82
2023-02-11T02:11:45.418Z,66.16
2023-02-11T02:13:17.782Z,67.11
2023-02-11T02:14:19.592Z,67.15
2023-02-11T02:15:34.484Z,67.00
2023-02-11T02:16:37.646Z,67.95
2023-02-11T02:17:55.664Z,68.05
2023-02-11T02:19:18.825Z,68.16
2023-02-11T02:20:52.858Z,68.04
2023-02-11T02:22:12.638Z,67.74
2023-02-11T02:23:17.227Z,67.50
2023-02-11T02:24:47.482Z,67.51
2023-02-11T02:26:34.359Z,67.79
2023-02-11T02:27:35.920Z,67.57
2023-02-11T02:29:21.020Z,67.47
2023-02-11T02:30:50.375Z,68.02
2023-02-11T02:32:22.781Z,67.91
2023-02-11T02:34:06.589Z,67.93
2023-02-11T02:35:26.800Z,67.53
2023-02-11T02:36:45.430Z,68.29
2023-02-11T02:38:04.905Z,68.28
2023-02-11T02:39:12.046Z,68.06
2023-02-11T02:40:23.583Z,67.43
2023-02-11T02:41:34.214Z,67.08
2023-02-11T02:42:36.854Z,66.80
2023-02-11T02:43:46.036Z,66.69
2023-02-11T02:44:52.328Z,66.12
2023-02-11T02:45:54.075Z,66.26
2023-02-11T02:46:55.802Z,66.55
2023-02-11T02:47:58.310Z,66.72
2023-02-11T02:49:01.140Z,66.74
2023-02-11T02:50:05.026Z,66.95
2023-02-11T02:51:14.097Z,66.92
2023-02-11T02:52:33.818Z,67.19
2023-02-11T02:53:53.190Z,67.85
2023-02-11T02:55:13.176Z,67.76
2023-02-11T02:56:25.940Z,67.74
2023-02-11T02:58:07.737Z,68.65
2023-02-11T02:59:15.105Z,68.21
2023-02-11T03:00:47.731Z,67.69
2023-02-11T03:02:14.089Z,67.68
2023-02-11T03:03:36.794Z,67.44
2023-02-11T03:05:00.623Z,67.52
2023-02-11T03:06:15.674Z,67.65
2023-02-11T03:07:38.068Z,68.35
2023-02-11T03:09:00.001Z,68.66
2023-02-11T03:10:11.553Z,68.11
2023-02-11T03:11:17.272Z,67.97
2023-02-11T03:12:20.549Z,67.91
2023-02-11T03:13:28.169Z,67.45
2023-02-11T03:14:32.319Z,66.84
2023-02-11T03:15:39.340Z,66.61
2023-02-11T03:16:43.533Z,66.65
2023-02-11T03:17:49.592Z,66.51
2023-02-11T03:19:03.236Z,66.58
2023-02-11T03:20:07.095Z,67.44
2023-02-11T03:21:10.422Z,67.61
2023-02-11T03:22:20.079Z,67.16
2023-02-11T03:23:42.011Z,66.56
2023-02-11T03:24:45.313Z,66.36
2023-02-11T03:25:58.738Z,66.11
2023-02-11T03:27:18.144Z,65.86
2023-02-11T03:28:33.505Z,65.41
2023-02-11T03:29:43.934Z,65.86
2023-02-11T03:31:00.401Z,65.76
2023-02-11T03:32:09.260Z,65.97
2023-02-11T03:33:26.648Z,65.55
2023-02-11T03:34:36.571Z,65.96
2023-02-11T03:36:04.510Z,65.92
2023-02-11T03:37:14.236Z,65.83
2023-02-11T03:38:24.440Z,65.12
2023-02-11T03:39:33.374Z,65.39
2023-02-11T03:40:41.188Z,65.01
2023-02-11T03:41:43.917Z,65.24
2023-02-11T03:42:59.986Z,65.00
2023-02-11T03:44:02.865Z,65.22
2023-02-11T03:45:14.347Z,66.10
2023-02-11T03:46:19.584Z,66.41
2023-02-11T03:47:26.685Z,66.50
2023-02-11T03:48:33.388Z,66.86
2023-02-11T03:49:38.328Z,66.59
2023-02-11T03:50:41.943Z,66.90
2023-02-11T03:51:44.163Z,66.95
2023-02-11T03:52:47.161Z,66.97
2023-02-11T03:53:52.931Z,66.24
2023-02-11T03:54:57.957Z,66.23
2023-02-11T03:56:05.307Z,67.14
2023-02-11T03:57:07.029Z,67.58
2023-02-11T03:58:09.341Z,67.03
2023-02-11T03:59:11.035Z,66.90
2023-02-11T04:00:14.048Z,67.49
2023-02-11T04:01:16.225Z,68.08
2023-02-11T04:02:18.242Z,68.05
2023-02-11T04:03:19.950Z,68.11
2023-02-11T04:04:21.826Z,68.09
2023-02-11T04:05:23.588Z,67.95
2023-02-11T04:06:25.368Z,67.78
2023-02-11T04:07:27.546Z,67.90
2023-02-11T04:08:29.211Z,68.32
2023-02-11T04:09:30.910Z,67.85
2023-02-11T04:10:32.953Z,67.64
2023-02-11T04:11:34.632Z,67.68
2023-02-11T04:12:36.314Z,67.97
2023-02-11T04:13:38.009Z,67.73
2023-02-11T04:14:39.726Z,67.96
2023-02-11T04:15:41.354Z,67.73
2023-02-11T04:16:43.014Z,67.96
2023-02-11T04:17:44.848Z,68.33
2023-02-11T04:18:46.545Z,68.03
2023-02-11T04:19:48.312Z,68.04
2023-02-11T04:20:51.113Z,68.20
2023-02-11T04:21:52.883Z,68.54
2023-02-11T04:22:54.616Z,68.36
2023-02-11T04:23:56.267Z,67.78
2023-02-11T04:24:58.080Z,67.76
2023-02-11T04:25:59.819Z,67.56
2023-02-11T04:27:01.931Z,67.54
2023-02-11T04:28:03.737Z,67.43
2023-02-11T04:29:05.486Z,67.52
2023-02-11T04:30:09.674Z,67.55
2023-02-11T04:31:11.362Z,67.66
2023-02-11T04:32:13.409Z,68.32
2023-02-11T04:33:15.109Z,68.76
2023-02-11T04:34:16.946Z,68.58
2023-02-11T04:35:18.707Z,68.46
2023-02-11T04:36:20.375Z,67.92
2023-02-11T04:37:22.020Z,68.03
2023-02-11T04:38:23.735Z,67.89
2023-02-11T04:39:25.421Z,67.67
2023-02-11T04:40:27.184Z,67.48
2023-02-11T04:41:28.845Z,67.60
2023-02-11T04:42:30.993Z,67.84
2023-02-11T04:43:32.718Z,67.83
2023-02-11T04:44:34.415Z,67.49
2023-02-11T04:45:36.183Z,67.48
2023-02-11T04:46:37.960Z,67.35
2023-02-11T04:47:39.632Z,66.70
2023-02-11T04:48:41.250Z,65.54
2023-02-11T04:49:42.969Z,65.41
2023-02-11T04:50:44.723Z,66.21
2023-02-11T04:51:48.998Z,66.02
2023-02-11T04:52:51.135Z,65.71
2023-02-11T04:53:52.851Z,66.22
2023-02-11T04:54:54.492Z,66.20
2023-02-11T04:55:56.222Z,66.25
2023-02-11T04:56:57.932Z,66.47
2023-02-11T04:57:59.616Z,66.91
2023-02-11T04:59:01.318Z,66.90
2023-02-11T05:00:03.527Z,67.12
2023-02-11T05:01:13.650Z,66.80
2023-02-11T05:02:15.310Z,66.73
2023-02-11T05:03:17.037Z,66.55
2023-02-11T05:04:19.142Z,67.22
2023-02-11T05:05:20.898Z,67.22
2023-02-11T05:06:22.769Z,67.46
2023-02-11T05:07:24.517Z,67.86
2023-02-11T05:08:26.162Z,67.83
2023-02-11T05:09:27.846Z,67.87
2023-02-11T05:10:29.524Z,67.75
2023-02-11T05:11:31.398Z,67.58
2023-02-11T05:12:33.074Z,67.32
2023-02-11T05:13:34.752Z,67.38
2023-02-11T05:14:36.421Z,67.85
2023-02-11T05:15:38.093Z,67.47
2023-02-11T05:16:39.838Z,67.35
2023-02-11T05:17:41.593Z,68.15
2023-02-11T05:18:44.434Z,68.20
2023-02-11T05:19:46.096Z,68.33
2023-02-11T05:20:47.943Z,68.34
2023-02-11T05:22:01.719Z,68.17
2023-02-11T05:23:04.616Z,67.61
2023-02-11T05:24:06.909Z,67.95
2023-02-11T05:25:08.747Z,68.36
2023-02-11T05:26:11.048Z,67.90
2023-02-11T05:27:12.746Z,68.17
2023-02-11T05:28:14.511Z,67.94
2023-02-11T05:29:16.255Z,67.95
2023-02-11T05:30:17.918Z,67.38
2023-02-11T05:31:19.723Z,67.42
2023-02-11T05:32:21.388Z,67.64
2023-02-11T05:33:23.213Z,67.74
2023-02-11T05:34:24.957Z,67.63
2023-02-11T05:35:26.615Z,67.43
2023-02-11T05:36:28.282Z,67.91
2023-02-11T05:37:30.062Z,67.09
2023-02-11T05:38:31.855Z,67.26
2023-02-11T05:39:33.551Z,67.70
2023-02-11T05:40:35.250Z,68.21
2023-02-11T05:41:36.959Z,67.86
2023-02-11T05:42:38.651Z,68.05
2023-02-11T05:43:40.320Z,67.93
2023-02-11T05:44:42.018Z,67.67
2023-02-11T05:45:43.641Z,67.16
2023-02-11T05:46:45.406Z,66.08
2023-02-11T05:47:47.170Z,64.56
2023-02-11T05:48:48.848Z,64.18
2023-02-11T05:49:51.301Z,62.23
2023-02-11T05:50:53.107Z,62.20
2023-02-11T05:51:54.774Z,62.02
2023-02-11T05:52:56.464Z,60.60
2023-02-11T05:53:58.360Z,57.96
2023-02-11T05:55:00.016Z,57.68
2023-02-11T05:56:02.096Z,58.03
2023-02-11T05:57:04.161Z,60.12
2023-02-11T05:58:07.327Z,61.61
2023-02-11T05:59:09.066Z,62.76
2023-02-11T06:00:11.590Z,64.00
2023-02-11T06:01:13.291Z,64.33
2023-02-11T06:02:15.677Z,62.83
2023-02-11T06:03:17.435Z,62.64
2023-02-11T06:04:19.145Z,63.92
2023-02-11T06:05:20.817Z,64.91
2023-02-11T06:06:22.574Z,65.35
2023-02-11T06:07:24.204Z,65.45
2023-02-11T06:08:25.951Z,66.15
2023-02-11T06:09:27.854Z,66.66
2023-02-11T06:10:29.559Z,66.92
2023-02-11T06:11:31.401Z,67.26
2023-02-11T06:12:33.087Z,67.01
2023-02-11T06:13:35.817Z,67.42
2023-02-11T06:14:37.584Z,67.24
2023-02-11T06:15:39.830Z,66.96
2023-02-11T06:16:41.532Z,66.85
2023-02-11T06:17:43.173Z,67.21
2023-02-11T06:18:44.923Z,67.08
2023-02-11T06:19:46.618Z,67.33
2023-02-11T06:20:48.311Z,67.09
2023-02-11T06:21:49.981Z,67.53
2023-02-11T06:22:51.618Z,67.68
2023-02-11T06:23:53.324Z,67.62
2023-02-11T06:25:01.571Z,67.93
2023-02-11T06:26:09.057Z,67.91
2023-02-11T06:27:10.748Z,68.33
2023-02-11T06:28:12.696Z,68.30
2023-02-11T06:29:14.554Z,68.58
2023-02-11T06:30:16.228Z,68.59
2023-02-11T06:31:18.166Z,68.98
2023-02-11T06:32:39.550Z,68.61
2023-02-11T06:33:42.304Z,68.84
2023-02-11T06:34:44.019Z,68.99
2023-02-11T06:35:45.697Z,68.97
2023-02-11T06:36:47.318Z,68.57
2023-02-11T06:37:49.014Z,68.46
2023-02-11T06:38:51.238Z,67.54
2023-02-11T06:39:52.967Z,67.67
2023-02-11T06:40:54.877Z,67.81
2023-02-11T06:41:56.587Z,67.19
2023-02-11T06:42:58.220Z,66.73
2023-02-11T06:43:59.878Z,66.60
2023-02-11T06:45:01.586Z,66.91
2023-02-11T06:46:03.347Z,66.43
2023-02-11T06:47:05.196Z,66.71
2023-02-11T06:48:06.886Z,66.84
2023-02-11T06:49:08.637Z,66.75
2023-02-11T06:50:13.861Z,66.40
2023-02-11T06:51:15.638Z,66.00
2023-02-11T06:52:17.585Z,65.91
2023-02-11T06:53:19.274Z,65.83
2023-02-11T06:54:21.026Z,65.33
2023-02-11T06:55:22.801Z,64.99
2023-02-11T06:56:25.005Z,64.15
2023-02-11T06:57:26.659Z,64.07
2023-02-11T06:58:28.358Z,64.17
2023-02-11T06:59:30.014Z,63.79
2023-02-11T07:00:31.805Z,63.18
2023-02-11T07:01:33.590Z,62.58
2023-02-11T07:02:36.330Z,62.55
2023-02-11T07:03:40.987Z,62.20
2023-02-11T07:04:42.698Z,62.35
2023-02-11T07:05:44.450Z,62.58
2023-02-11T07:06:46.178Z,63.46
2023-02-11T07:07:47.829Z,63.38
2023-02-11T07:08:49.760Z,63.07
2023-02-11T07:09:51.457Z,62.99
2023-02-11T07:10:53.210Z,62.13
2023-02-11T07:11:54.925Z,61.54
2023-02-11T07:12:58.704Z,61.38
2023-02-11T07:14:03.562Z,60.94
2023-02-11T07:15:05.911Z,61.27
2023-02-11T07:16:09.480Z,61.18
2023-02-11T07:17:11.192Z,61.09
2023-02-11T07:18:14.693Z,61.41
2023-02-11T07:19:16.563Z,60.83
2023-02-11T07:20:18.339Z,60.06
2023-02-11T07:21:22.362Z,59.65
2023-02-11T07:22:24.139Z,59.54
2023-02-11T07:23:25.834Z,58.79
2023-02-11T07:24:27.496Z,58.57
2023-02-11T07:25:29.118Z,58.60
2023-02-11T07:26:30.747Z,58.68
2023-02-11T07:27:32.515Z,58.15
2023-02-11T07:28:35.795Z,57.54
2023-02-11T07:29:37.542Z,57.45
2023-02-11T07:30:39.210Z,58.07
2023-02-11T07:31:40.992Z,58.32
2023-02-11T07:32:42.824Z,58.15
2023-02-11T07:33:44.792Z,59.11
2023-02-11T07:34:46.552Z,58.60
2023-02-11T07:35:48.404Z,59.13
2023-02-11T07:36:50.283Z,58.76
2023-02-11T07:37:51.995Z,58.93
2023-02-11T07:38:53.850Z,58.45
2023-02-11T07:39:55.530Z,57.14
2023-02-11T07:41:00.849Z,56.75
2023-02-11T07:42:04.002Z,57.15
2023-02-11T07:43:05.737Z,58.21
2023-02-11T07:44:07.472Z,57.56
2023-02-11T07:45:09.510Z,57.34
2023-02-11T07:46:14.614Z,56.92
2023-02-11T07:47:16.378Z,56.50
2023-02-11T07:48:18.067Z,57.30
2023-02-11T07:49:19.730Z,57.66
2023-02-11T07:50:21.410Z,57.42
2023-02-11T07:51:28.184Z,56.44
2023-02-11T07:52:30.920Z,55.26
2023-02-11T07:53:32.629Z,54.47
2023-02-11T07:54:34.324Z,54.52
2023-02-11T07:55:35.996Z,55.39
2023-02-11T07:56:37.699Z,53.84
2023-02-11T07:57:39.450Z,53.62
2023-02-11T07:58:41.517Z,52.63
2023-02-11T07:59:43.153Z,53.64
2023-02-11T08:00:44.855Z,54.10
2023-02-11T08:01:46.623Z,54.25
2023-02-11T08:02:48.294Z,53.98
2023-02-11T08:03:50.041Z,54.52
2023-02-11T08:04:51.728Z,54.32
2023-02-11T08:05:53.557Z,53.47
2023-02-11T08:06:57.831Z,53.59
2023-02-11T08:08:00.694Z,52.58
2023-02-11T08:09:07.774Z,53.13
2023-02-11T08:10:09.704Z,53.58
2023-02-11T08:11:28.965Z,53.49
2023-02-11T08:12:30.766Z,52.47
2023-02-11T08:13:32.419Z,52.90
2023-02-11T08:14:34.095Z,51.74
2023-02-11T08:15:35.717Z,52.27
2023-02-11T08:16:38.030Z,52.46
2023-02-11T08:17:39.750Z,51.75
2023-02-11T08:18:41.472Z,51.24
2023-02-11T08:19:43.328Z,51.58
2023-02-11T08:20:45.036Z,51.46
2023-02-11T08:21:46.742Z,50.30
2023-02-11T08:22:48.450Z,50.96
2023-02-11T08:23:50.444Z,51.10
2023-02-11T08:24:52.515Z,51.71
2023-02-11T08:25:54.336Z,51.33
2023-02-11T08:26:56.061Z,51.32
2023-02-11T08:27:58.304Z,51.26
2023-02-11T08:29:01.547Z,50.65
2023-02-11T08:30:03.658Z,50.29
2023-02-11T08:31:07.281Z,51.48
2023-02-11T08:32:09.180Z,49.94
2023-02-11T08:33:10.940Z,49.54
2023-02-11T08:34:13.634Z,49.75
2023-02-11T08:35:15.428Z,49.22
2023-02-11T08:36:25.443Z,49.05
2023-02-11T08:37:27.183Z,48.48
2023-02-11T08:38:28.927Z,48.57
2023-02-11T08:39:31.521Z,47.68
2023-02-11T08:40:33.232Z,46.96
2023-02-11T08:41:35.766Z,47.02
2023-02-11T08:42:37.435Z,47.78
2023-02-11T08:43:39.162Z,48.10
2023-02-11T08:44:41.302Z,47.91
2023-02-11T08:45:43.052Z,48.72
2023-02-11T08:46:44.746Z,48.27
2023-02-11T08:47:46.415Z,47.70
2023-02-11T08:48:48.307Z,46.70
2023-02-11T08:49:50.145Z,48.70
2023-02-11T08:50:52.114Z,50.36
2023-02-11T08:51:53.997Z,49.89
2023-02-11T08:52:55.722Z,48.74
2023-02-11T08:53:58.082Z,46.69
2023-02-11T08:54:59.888Z,46.71
2023-02-11T08:56:01.780Z,47.51
2023-02-11T08:57:04.142Z,46.88
2023-02-11T08:58:05.905Z,47.62
2023-02-11T08:59:08.238Z,46.83
2023-02-11T09:00:10.651Z,46.93
2023-02-11T09:01:23.099Z,46.42
2023-02-11T09:02:24.898Z,46.22
2023-02-11T09:03:26.635Z,45.75
2023-02-11T09:04:28.402Z,43.90
2023-02-11T09:05:30.189Z,44.09
2023-02-11T09:06:32.120Z,44.20
2023-02-11T09:07:33.828Z,44.50
2023-02-11T09:08:37.490Z,43.25
2023-02-11T09:09:39.193Z,42.40
2023-02-11T09:10:40.940Z,44.33
2023-02-11T09:11:44.411Z,44.30
2023-02-11T09:12:46.219Z,44.40
2023-02-11T09:13:48.202Z,44.36
2023-02-11T09:14:49.899Z,45.43
2023-02-11T09:15:51.639Z,44.41
2023-02-11T09:16:54.044Z,44.18
2023-02-11T09:17:56.459Z,44.25
2023-02-11T09:18:59.442Z,43.68
2023-02-11T09:20:01.250Z,43.75
2023-02-11T09:21:09.387Z,42.60
2023-02-11T09:22:11.184Z,42.25
2023-02-11T09:23:12.868Z,42.27
2023-02-11T09:24:14.634Z,42.97
2023-02-11T09:25:16.444Z,43.06
2023-02-11T09:26:44.360Z,42.15
2023-02-11T09:27:46.436Z,41.40
2023-02-11T09:28:48.626Z,41.53
2023-02-11T09:29:50.382Z,41.32
2023-02-11T09:30:52.304Z,41.10
2023-02-11T09:31:54.412Z,42.24
2023-02-11T09:32:56.215Z,42.26
2023-02-11T09:34:01.177Z,42.53
2023-02-11T09:35:02.912Z,41.98
2023-02-11T09:36:06.212Z,40.23
2023-02-11T09:37:07.881Z,40.22
2023-02-11T09:38:09.669Z,40.48
2023-02-11T09:39:20.342Z,42.98
2023-02-11T09:40:22.887Z,41.86
2023-02-11T09:41:24.529Z,41.85
2023-02-11T09:42:37.923Z,41.98
2023-02-11T09:43:46.648Z,41.71
2023-02-11T09:44:48.896Z,41.35
2023-02-11T09:45:53.844Z,40.69
2023-02-11T09:47:01.504Z,41.35
2023-02-11T09:48:33.730Z,41.10
2023-02-11T09:49:42.859Z,40.22
2023-02-11T09:50:55.709Z,38.50
2023-02-11T09:52:12.531Z,38.63
2023-02-11T09:53:20.216Z,39.57
2023-02-11T09:54:49.020Z,41.27
2023-02-11T09:56:02.197Z,40.42
2023-02-11T09:57:04.764Z,40.06
2023-02-11T09:58:15.258Z,39.62
2023-02-11T09:59:17.662Z,40.87
2023-02-11T10:00:28.522Z,40.23
2023-02-11T10:01:40.220Z,39.39
2023-02-11T10:02:50.636Z,40.34
2023-02-11T10:04:20.453Z,38.39
2023-02-11T10:05:24.798Z,37.67
2023-02-11T10:06:29.004Z,37.87
2023-02-11T10:08:05.357Z,38.97
2023-02-11T10:09:26.182Z,38.62
2023-02-11T10:10:45.320Z,38.33
2023-02-11T10:11:58.195Z,37.09
2023-02-11T10:13:12.073Z,36.38
2023-02-11T10:14:55.085Z,35.63
2023-02-11T10:16:28.332Z,37.63
2023-02-11T10:17:45.654Z,37.24
2023-02-11T10:18:50.094Z,37.56
2023-02-11T10:20:20.965Z,37.63
2023-02-11T10:21:45.173Z,39.14
2023-02-11T10:22:54.762Z,38.20
2023-02-11T10:24:00.575Z,37.74
2023-02-11T10:25:32.416Z,37.96
2023-02-11T10:26:37.008Z,37.41
2023-02-11T10:27:38.718Z,37.35
2023-02-11T10:28:44.290Z,37.31
2023-02-11T10:30:01.279Z,37.16
2023-02-11T10:31:08.553Z,35.87
2023-02-11T10:32:47.864Z,35.52
2023-02-11T10:34:11.623Z,35.17
2023-02-11T10:35:17.318Z,35.95
2023-02-11T10:36:21.143Z,36.43
2023-02-11T10:37:22.913Z,36.75
2023-02-11T10:38:25.215Z,35.90
2023-02-11T10:39:28.188Z,36.61
2023-02-11T10:40:31.623Z,36.12
2023-02-11T10:41:38.257Z,36.20
2023-02-11T10:42:42.275Z,35.08
2023-02-11T10:43:43.959Z,35.25
2023-02-11T10:45:04.718Z,35.12
2023-02-11T10:46:06.599Z,34.28
2023-02-11T10:47:22.538Z,33.68
2023-02-11T10:48:43.478Z,33.50
2023-02-11T10:49:47.006Z,34.01
2023-02-11T10:50:48.936Z,33.43
2023-02-11T10:52:10.406Z,33.46
2023-02-11T10:53:18.344Z,32.30
2023-02-11T10:54:20.012Z,33.25
2023-02-11T10:55:26.714Z,33.02
2023-02-11T10:56:29.165Z,32.50
2023-02-11T10:57:35.095Z,33.19
2023-02-11T10:58:44.091Z,32.84
2023-02-11T10:59:45.925Z,32.03
2023-02-11T11:00:53.213Z,31.69
2023-02-11T11:01:59.763Z,30.49
2023-02-11T11:03:02.693Z,29.94
2023-02-11T11:04:04.593Z,30.93
2023-02-11T11:05:19.948Z,31.10
2023-02-11T11:06:35.354Z,31.40
2023-02-11T11:07:37.422Z,30.93
2023-02-11T11:08:41.688Z,29.49
2023-02-11T11:09:51.651Z,31.59
2023-02-11T11:11:08.377Z,31.79
2023-02-11T11:12:39.670Z,32.18
2023-02-11T11:13:54.151Z,32.50
2023-02-11T11:14:58.755Z,32.18
2023-02-11T11:16:12.640Z,32.46
2023-02-11T11:17:19.245Z,32.52
2023-02-11T11:18:23.262Z,33.51
2023-02-11T11:19:26.269Z,33.56
2023-02-11T11:20:30.795Z,33.85
2023-02-11T11:21:41.522Z,33.09
2023-02-11T11:22:44.079Z,32.87
2023-02-11T11:23:55.728Z,32.85
2023-02-11T11:24:57.533Z,32.32
2023-02-11T11:26:06.327Z,31.83
2023-02-11T11:27:17.520Z,31.75
2023-02-11T11:28:24.128Z,31.71
2023-02-11T11:29:39.627Z,31.18
2023-02-11T11:30:43.338Z,31.18
2023-02-11T11:31:55.824Z,30.84
2023-02-11T11:32:58.468Z,29.30
2023-02-11T11:34:13.203Z,30.00
2023-02-11T11:35:28.298Z,30.56
2023-02-11T11:36:39.542Z,29.22
2023-02-11T11:37:42.100Z,29.14
2023-02-11T11:38:49.260Z,29.73
2023-02-11T11:40:07.976Z,30.14
2023-02-11T11:41:32.737Z,28.24
2023-02-11T11:42:37.529Z,28.35
2023-02-11T11:43:39.337Z,29.59
2023-02-11T11:44:41.126Z,29.90
2023-02-11T11:46:00.160Z,30.21
2023-02-11T11:47:25.367Z,30.76
2023-02-11T11:48:42.431Z,30.53
2023-02-11T11:50:05.998Z,30.69
2023-02-11T11:51:12.127Z,30.07
2023-02-11T11:52:32.038Z,29.44
2023-02-11T11:53:36.447Z,28.99
2023-02-11T11:54:40.275Z,29.28
2023-02-11T11:56:16.356Z,28.80
2023-02-11T11:57:22.268Z,29.07
2023-02-11T11:58:24.222Z,29.58
2023-02-11T11:59:25.926Z,29.12
2023-02-11T12:00:48.159Z,30.06
2023-02-11T12:02:27.157Z,30.02
2023-02-11T12:03:45.199Z,30.56
2023-02-11T12:05:22.647Z,29.49
2023-02-11T12:06:26.914Z,29.71
2023-02-11T12:07:46.494Z,29.63
2023-02-11T12:09:06.535Z,29.61
2023-02-11T12:10:35.627Z,28.89
2023-02-11T12:11:49.560Z,27.82
2023-02-11T12:13:26.385Z,28.62
2023-02-11T12:14:59.935Z,28.55
2023-02-11T12:16:09.661Z,28.70
2023-02-11T12:17:31.688Z,29.75
2023-02-11T12:18:49.266Z,28.51
2023-02-11T12:19:55.336Z,28.01
2023-02-11T12:20:59.986Z,27.51
2023-02-11T12:22:20.111Z,27.75
2023-02-11T12:23:33.889Z,28.60
2023-02-11T12:24:46.031Z,29.19
2023-02-11T12:25:54.362Z,29.76
2023-02-11T12:27:33.144Z,29.96
2023-02-11T12:29:04.698Z,28.97
2023-02-11T12:30:26.996Z,28.99
2023-02-11T12:31:59.806Z,28.42
2023-02-11T12:33:16.169Z,28.56
2023-02-11T12:34:38.346Z,29.29
2023-02-11T12:36:14.965Z,29.62
2023-02-11T12:37:27.152Z,30.17
2023-02-11T12:38:47.658Z,30.07
2023-02-11T12:40:13.039Z,30.09
2023-02-11T12:41:37.885Z,28.96
2023-02-11T12:43:22.296Z,29.58
2023-02-11T12:44:32.939Z,30.26
2023-02-11T12:46:11.256Z,30.48
2023-02-11T12:47:18.578Z,30.43
2023-02-11T12:48:44.709Z,30.11
2023-02-11T12:49:58.768Z,30.38
2023-02-11T12:51:00.894Z,30.60
2023-02-11T12:52:02.544Z,30.36
2023-02-11T12:53:15.996Z,29.75
2023-02-11T12:54:48.786Z,29.66
2023-02-11T12:55:57.904Z,29.99
2023-02-11T12:57:17.730Z,29.71
2023-02-11T12:58:29.697Z,28.93
2023-02-11T12:59:58.849Z,29.98
2023-02-11T13:01:29.811Z,29.92
2023-02-11T13:02:59.957Z,29.59
2023-02-11T13:04:18.038Z,28.95
2023-02-11T13:05:41.111Z,29.89
2023-02-11T13:06:51.158Z,29.52
2023-02-11T13:07:59.367Z,30.12
2023-02-11T13:09:04.490Z,30.34
2023-02-11T13:10:46.985Z,30.72
2023-02-11T13:11:55.044Z,30.37
2023-02-11T13:12:58.840Z,30.76
2023-02-11T13:14:06.600Z,30.87
2023-02-11T13:15:14.401Z,30.97
2023-02-11T13:16:48.515Z,30.21
2023-02-11T13:18:06.173Z,30.79
2023-02-11T13:19:14.089Z,30.85
2023-02-11T13:20:45.453Z,31.55
2023-02-11T13:22:13.400Z,31.64
2023-02-11T13:23:26.338Z,31.58
2023-02-11T13:24:53.283Z,31.13
2023-02-11T13:26:02.752Z,31.23
2023-02-11T13:27:15.853Z,31.27
2023-02-11T13:28:36.508Z,31.53
2023-02-11T13:30:03.035Z,31.59
2023-02-11T13:31:08.128Z,31.31
2023-02-11T13:32:12.831Z,31.61
2023-02-11T13:33:20.914Z,31.75
2023-02-11T13:34:44.070Z,31.66
2023-02-11T13:35:58.010Z,31.81
2023-02-11T13:36:59.803Z,31.54
2023-02-11T13:38:24.285Z,31.94
2023-02-11T13:39:26.067Z,31.85
2023-02-11T13:40:38.639Z,32.65
2023-02-11T13:41:41.904Z,32.20
2023-02-11T13:42:59.831Z,32.83
2023-02-11T13:44:10.464Z,31.80
2023-02-11T13:45:45.394Z,31.95
2023-02-11T13:46:54.194Z,31.35
2023-02-11T13:48:02.190Z,31.91
2023-02-11T13:49:03.909Z,31.89
2023-02-11T13:50:07.701Z,31.87
2023-02-11T13:51:12.727Z,32.18
2023-02-11T13:52:35.777Z,32.12
2023-02-11T13:53:52.239Z,31.94
2023-02-11T13:54:56.912Z,31.78
2023-02-11T13:56:28.439Z,31.97
2023-02-11T13:57:33.736Z,32.01
2023-02-11T13:58:38.341Z,31.66
2023-02-11T13:59:39.963Z,31.35
2023-02-11T14:00:49.848Z,31.72
2023-02-11T14:01:51.965Z,32.17
2023-02-11T14:03:11.548Z,32.53
2023-02-11T14:04:23.075Z,31.53
2023-02-11T14:05:29.527Z,31.26
2023-02-11T14:06:31.296Z,31.69
2023-02-11T14:07:34.107Z,32.03
2023-02-11T14:08:38.765Z,32.22
2023-02-11T14:09:41.146Z,31.87
2023-02-11T14:10:42.830Z,32.14
2023-02-11T14:11:53.335Z,32.16
2023-02-11T14:13:23.000Z,32.25
2023-02-11T14:14:25.959Z,32.05
2023-02-11T14:15:27.948Z,31.65
2023-02-11T14:16:37.903Z,31.97
2023-02-11T14:17:40.295Z,31.96
2023-02-11T14:18:45.028Z,31.86
2023-02-11T14:19:48.734Z,31.91
2023-02-11T14:20:50.821Z,32.27
2023-02-11T14:21:53.446Z,32.63
2023-02-11T14:22:56.651Z,32.34
2023-02-11T14:24:10.205Z,32.61
2023-02-11T14:25:24.456Z,32.47